SKRH/RCH METAR and TAF weather

Enter ICAO airport designator
Station Type Date Time Source
SKRH METAR 2020/09/30 19:00 UTC NOAA

SKRH 301900Z 29010KT 9999 FEW015 BKN200 30/26 A2976


Station Type Date Time Source
SKRH Decoded METAR 2020/09/30 19:00 UTC NOAA

Riohacha / Almirante Padilla, Colombia (SKRH) 11-32N 072-56W 4M
Sep 30, 2020 - 03:00 PM EDT / 2020.09.30 1900 UTC
Wind: from the WNW (290 degrees) at 12 MPH (10 KT):0
Visibility: greater than 7 mile(s):0
Sky conditions: mostly cloudy
Temperature: 86 F (30 C)
Heat index: 99.3 F (37.4 C):1
Dew Point: 78 F (26 C)
Relative Humidity: 79%
Pressure (altimeter): 29.76 in. Hg (1007 hPa)
ob: SKRH 301900Z 29010KT 9999 FEW015 BKN200 30/26 A2976
cycle: 19

Station Type Date Time Source
SKRH TAF 2015/07/31 18:51 UTC NOAA

TAF SKRH 311700Z 3118/0118 07010KT 9999 SCT017
TEMPO 3120/0103 09015KT CAVOK
TEMPO 0109/0114 9000 BKN015 TX36/3118Z TN28/0110Z

Example: see airport list